Parowan, Utah
Current Conditions -  °F | °C
As of 5:53 PM on Monday 24 Nov 2014 (Local Time) from KCDC Reporting Station
Clear Clear  
Wind Chill: -4°   Ceiling: Unl
Heat Index: -1°   Visibility: 10mi
Dew Point: -10°   Wind: 6mph
Humidity: 50%   Direction: 10°N
Pressure: 30.4"   Gusts: NA
Location:  37.84°N, 112.83°W
Report Text: KCDC 250053Z AUTO 01005KT 10SM CLR M01/M10 A3040 RMK AO2 SLP328 T10061100
Loading
Personal Weather Stations






























Interactive Weather Map New forecast layout! Learn more

10-Day Weather Forecast

Advertisements
Track Severe Weather on mobile